Time;durP1;ratioP1;P1;durP2;ratioP2;P2;SDS_P1;SDS_P2;PMS_P1;PMS_P2;Temp;Humidity;BMP_temperature;BMP_pressure;BME280_temperature;BME280_humidity;BME280_pressure;Samples;Min_cycle;Max_cycle;Signal;HPM_P1;HPM_P2
2022/05/08 00:00:12;;;;;;;5.97;2.42;;;;;;;;;;5020452;28;20037;-72
2022/05/08 00:02:40;;;;;;;6.30;2.80;;;;;;;;;;5019731;28;20022;-72
2022/05/08 00:05:06;;;;;;;4.43;2.40;;;;;;;;;;5030551;28;20063;-72
2022/05/08 00:07:32;;;;;;;5.63;2.33;;;;;;;;;;5016426;28;20044;-71
2022/05/08 00:09:58;;;;;;;4.32;2.50;;;;;;;;;;5030448;28;20029;-71
2022/05/08 00:12:25;;;;;;;6.30;2.53;;;;;;;;;;5023042;28;20038;-72
2022/05/08 00:14:51;;;;;;;5.10;2.63;;;;;;;;;;5027702;28;20034;-72
2022/05/08 00:17:18;;;;;;;5.57;2.45;;;;;;;;;;5019670;28;20025;-71
2022/05/08 00:19:45;;;;;;;5.63;2.83;;;;;;;;;;5016018;28;20026;-72
2022/05/08 00:22:12;;;;;;;5.32;2.80;;;;;;;;;;5019702;28;20054;-72
2022/05/08 00:24:38;;;;;;;5.10;2.92;;;;;;;;;;5018396;28;20034;-71
2022/05/08 00:27:04;;;;;;;5.38;2.63;;;;;;;;;;5024926;28;20069;-72
2022/05/08 00:29:30;;;;;;;4.60;2.75;;;;;;;;;;5030569;28;20025;-72
2022/05/08 00:31:57;;;;;;;7.72;2.80;;;;;;;;;;5016085;28;20040;-71
2022/05/08 00:34:23;;;;;;;6.97;2.72;;;;;;;;;;5018626;28;20085;-72
2022/05/08 00:36:50;;;;;;;6.07;2.92;;;;;;;;;;5027392;28;20033;-71
2022/05/08 00:39:18;;;;;;;5.88;2.75;;;;;;;;;;5028044;28;20392;-72
2022/05/08 00:41:45;;;;;;;6.15;2.67;;;;;;;;;;5028026;28;20057;-72
2022/05/08 00:44:12;;;;;;;7.18;3.03;;;;;;;;;;5017020;28;20412;-71
2022/05/08 00:46:39;;;;;;;6.32;3.00;;;;;;;;;;5031072;28;20052;-72
2022/05/08 00:49:05;;;;;;;5.97;3.15;;;;;;;;;;5029790;28;20427;-72
2022/05/08 00:51:31;;;;;;;7.22;3.15;;;;;;;;;;5021542;28;20034;-71
2022/05/08 00:53:58;;;;;;;5.38;2.95;;;;;;;;;;5019550;28;20099;-72
2022/05/08 00:56:24;;;;;;;6.85;3.53;;;;;;;;;;5019554;28;20030;-72
2022/05/08 00:58:52;;;;;;;10.20;3.75;;;;;;;;;;5015247;28;20108;-72
2022/05/08 01:01:18;;;;;;;6.22;3.33;;;;;;;;;;5030008;28;20025;-72
2022/05/08 01:03:45;;;;;;;7.43;4.07;;;;;;;;;;5019413;28;20485;-72
2022/05/08 01:06:14;;;;;;;7.43;3.28;;;;;;;;;;5019506;28;20508;-72
2022/05/08 01:08:42;;;;;;;7.30;3.25;;;;;;;;;;5019134;28;20492;-72
2022/05/08 01:11:08;;;;;;;7.65;3.72;;;;;;;;;;5029705;28;20030;-72
2022/05/08 01:13:36;;;;;;;8.38;4.43;;;;;;;;;;5016829;28;20033;-72
2022/05/08 01:16:02;;;;;;;8.02;4.38;;;;;;;;;;5028666;28;20065;-72
2022/05/08 01:18:28;;;;;;;6.93;4.10;;;;;;;;;;5021418;28;20644;-72
2022/05/08 01:20:55;;;;;;;7.45;3.90;;;;;;;;;;5020611;28;20125;-71
2022/05/08 01:23:24;;;;;;;7.68;3.50;;;;;;;;;;5027572;28;20057;-72
2022/05/08 01:25:56;;;;;;;6.68;3.33;;;;;;;;;;5014709;28;20083;-71
2022/05/08 01:28:23;;;;;;;6.82;3.15;;;;;;;;;;5023065;28;20038;-71
2022/05/08 01:30:50;;;;;;;7.22;3.20;;;;;;;;;;5018847;28;20568;-72
2022/05/08 01:33:17;;;;;;;6.30;3.45;;;;;;;;;;5021079;28;20034;-71
2022/05/08 01:35:43;;;;;;;5.65;3.00;;;;;;;;;;5017300;28;20034;-72
2022/05/08 01:38:10;;;;;;;8.98;3.50;;;;;;;;;;5017068;28;20108;-71
2022/05/08 01:40:36;;;;;;;5.70;3.00;;;;;;;;;;5016015;28;20026;-72
2022/05/08 01:43:02;;;;;;;6.45;3.28;;;;;;;;;;5018237;28;20022;-72
2022/05/08 01:45:28;;;;;;;6.18;2.92;;;;;;;;;;5018282;28;20040;-72
2022/05/08 01:50:40;;;;;;;4.97;2.95;;;;;;;;;;5018793;28;20098;-71
2022/05/08 01:53:06;;;;;;;6.63;3.00;;;;;;;;;;5016223;28;20029;-72
2022/05/08 01:55:33;;;;;;;4.82;2.90;;;;;;;;;;5014855;28;20030;-71
2022/05/08 01:57:59;;;;;;;4.70;2.63;;;;;;;;;;5017952;28;20547;-71
2022/05/08 02:00:26;;;;;;;5.75;2.80;;;;;;;;;;5023519;28;20087;-71
2022/05/08 02:02:52;;;;;;;5.85;3.10;;;;;;;;;;5026594;28;20458;-71
2022/05/08 02:05:19;;;;;;;4.70;2.80;;;;;;;;;;5027550;28;20045;-72
2022/05/08 02:07:46;;;;;;;6.50;2.97;;;;;;;;;;5014973;28;20041;-72
2022/05/08 02:10:13;;;;;;;7.25;2.80;;;;;;;;;;5025230;28;20037;-71
2022/05/08 02:12:39;;;;;;;6.40;3.00;;;;;;;;;;5019192;28;20033;-71
2022/05/08 02:15:06;;;;;;;6.63;2.80;;;;;;;;;;5017405;28;20046;-71
2022/05/08 02:17:32;;;;;;;6.85;3.00;;;;;;;;;;5018426;28;20040;-71
2022/05/08 02:19:59;;;;;;;8.50;3.40;;;;;;;;;;5028946;28;20034;-72
2022/05/08 02:22:25;;;;;;;7.93;3.78;;;;;;;;;;5019106;28;20060;-72
2022/05/08 02:24:52;;;;;;;7.57;3.42;;;;;;;;;;5016704;28;20034;-72
2022/05/08 02:27:18;;;;;;;6.65;3.45;;;;;;;;;;5018086;28;20058;-72
2022/05/08 02:29:48;;;;;;;9.55;3.40;;;;;;;;;;5026011;28;20034;-72
2022/05/08 02:32:14;;;;;;;8.60;3.30;;;;;;;;;;5015641;28;20021;-72
2022/05/08 02:34:41;;;;;;;6.93;3.55;;;;;;;;;;5023419;28;20077;-72
2022/05/08 02:37:07;;;;;;;5.43;2.90;;;;;;;;;;5015837;28;20018;-72
2022/05/08 02:39:33;;;;;;;7.82;3.10;;;;;;;;;;5024403;28;20375;-71
2022/05/08 02:42:00;;;;;;;5.38;3.28;;;;;;;;;;5025843;28;20029;-71
2022/05/08 02:44:26;;;;;;;5.97;2.90;;;;;;;;;;5027934;28;20029;-72
2022/05/08 02:46:52;;;;;;;6.20;3.38;;;;;;;;;;5013092;28;20079;-71
2022/05/08 02:49:18;;;;;;;7.50;3.72;;;;;;;;;;5016724;28;20042;-71
2022/05/08 02:51:44;;;;;;;8.27;3.65;;;;;;;;;;5017493;28;20032;-71
2022/05/08 02:54:10;;;;;;;7.80;3.92;;;;;;;;;;5017459;28;20396;-71
2022/05/08 02:59:21;;;;;;;6.18;3.60;;;;;;;;;;5016879;28;20051;-71
2022/05/08 03:01:47;;;;;;;6.90;3.60;;;;;;;;;;5014107;28;20033;-72
2022/05/08 03:04:14;;;;;;;7.32;3.50;;;;;;;;;;5016663;28;20084;-72
2022/05/08 03:06:40;;;;;;;6.13;3.03;;;;;;;;;;5016711;28;20065;-72
2022/05/08 03:09:06;;;;;;;7.43;3.13;;;;;;;;;;5019302;28;20021;-72
2022/05/08 03:11:33;;;;;;;5.38;3.17;;;;;;;;;;5024478;28;20484;-72
2022/05/08 03:14:00;;;;;;;6.82;3.00;;;;;;;;;;5013470;28;20042;-72
2022/05/08 03:16:30;;;;;;;6.85;3.33;;;;;;;;;;5015094;28;20119;-72
2022/05/08 03:18:56;;;;;;;6.53;3.30;;;;;;;;;;5026624;28;20049;-71
2022/05/08 03:21:23;;;;;;;7.07;3.20;;;;;;;;;;5025360;28;20039;-72
2022/05/08 03:23:49;;;;;;;8.52;3.55;;;;;;;;;;5024620;28;20426;-72
2022/05/08 03:26:19;;;;;;;5.70;3.20;;;;;;;;;;5015955;28;20025;-71
2022/05/08 03:28:45;;;;;;;7.75;3.05;;;;;;;;;;5022142;28;20458;-71
2022/05/08 03:31:12;;;;;;;5.47;2.83;;;;;;;;;;5016388;28;20025;-72
2022/05/08 03:33:39;;;;;;;5.90;3.20;;;;;;;;;;5023289;28;20164;-72
2022/05/08 03:36:05;;;;;;;11.13;3.25;;;;;;;;;;5023412;28;20034;-71
2022/05/08 03:38:33;;;;;;;7.60;3.25;;;;;;;;;;5023520;28;20025;-71
2022/05/08 03:41:01;;;;;;;4.88;3.10;;;;;;;;;;5019828;28;20034;-71
2022/05/08 03:43:28;;;;;;;7.53;3.47;;;;;;;;;;5021121;28;20054;-71
2022/05/08 03:45:54;;;;;;;5.60;3.20;;;;;;;;;;5032584;28;20104;-72
2022/05/08 03:48:21;;;;;;;6.55;3.40;;;;;;;;;;5027053;28;20029;-71
2022/05/08 03:50:47;;;;;;;6.07;3.08;;;;;;;;;;5023343;28;20073;-71
2022/05/08 03:53:14;;;;;;;6.82;3.03;;;;;;;;;;5022004;28;20026;-72
2022/05/08 03:55:40;;;;;;;7.82;3.03;;;;;;;;;;5019953;28;20029;-72
2022/05/08 03:58:06;;;;;;;8.93;3.55;;;;;;;;;;5027343;28;20026;-71
2022/05/08 04:00:32;;;;;;;7.63;3.30;;;;;;;;;;5023285;28;20026;-71
2022/05/08 04:03:00;;;;;;;6.78;3.40;;;;;;;;;;5028273;28;20551;-72
2022/05/08 04:05:26;;;;;;;5.68;3.30;;;;;;;;;;5023159;28;20021;-71
2022/05/08 04:07:52;;;;;;;8.38;3.15;;;;;;;;;;5018776;28;20034;-72
2022/05/08 04:10:19;;;;;;;8.02;3.10;;;;;;;;;;5022390;28;20026;-72
2022/05/08 04:12:47;;;;;;;6.50;3.50;;;;;;;;;;5023026;28;20034;-71
2022/05/08 04:17:58;;;;;;;6.82;2.80;;;;;;;;;;5029779;28;20044;-71
2022/05/08 04:20:24;;;;;;;6.43;3.50;;;;;;;;;;5023155;28;20045;-72
2022/05/08 04:25:35;;;;;;;6.68;3.58;;;;;;;;;;5034399;28;20024;-72
2022/05/08 04:28:01;;;;;;;5.97;3.30;;;;;;;;;;5022269;28;20045;-71
2022/05/08 04:30:27;;;;;;;7.05;3.40;;;;;;;;;;5023062;28;20030;-72
2022/05/08 04:32:55;;;;;;;7.45;3.50;;;;;;;;;;5023002;28;20409;-71
2022/05/08 04:35:21;;;;;;;7.38;3.45;;;;;;;;;;5027018;28;20032;-72
2022/05/08 04:37:47;;;;;;;7.30;3.38;;;;;;;;;;5019677;28;20025;-72
2022/05/08 04:40:13;;;;;;;7.80;3.45;;;;;;;;;;5032912;28;20034;-72
2022/05/08 04:42:39;;;;;;;5.95;3.40;;;;;;;;;;5023830;28;20052;-71
2022/05/08 04:45:06;;;;;;;5.75;3.40;;;;;;;;;;5018435;28;20034;-71
2022/05/08 04:47:33;;;;;;;6.90;3.40;;;;;;;;;;5027354;28;20044;-71
2022/05/08 04:49:59;;;;;;;7.72;3.80;;;;;;;;;;5016183;28;20032;-71
2022/05/08 04:52:25;;;;;;;7.72;3.63;;;;;;;;;;5017936;28;20101;-72
2022/05/08 04:54:51;;;;;;;5.68;3.42;;;;;;;;;;5019566;28;20074;-71
2022/05/08 04:57:17;;;;;;;8.63;3.30;;;;;;;;;;5019336;28;20041;-71
2022/05/08 04:59:43;;;;;;;8.52;3.88;;;;;;;;;;5019583;28;20503;-72
2022/05/08 05:02:09;;;;;;;5.68;3.05;;;;;;;;;;5017463;28;20034;-72
2022/05/08 05:04:36;;;;;;;7.60;3.75;;;;;;;;;;5031031;28;20037;-72
2022/05/08 05:07:02;;;;;;;9.27;3.63;;;;;;;;;;5018741;28;20044;-71
2022/05/08 05:09:28;;;;;;;6.70;3.75;;;;;;;;;;5018946;28;20048;-71
2022/05/08 05:11:54;;;;;;;8.65;3.95;;;;;;;;;;5019171;28;20032;-72
2022/05/08 05:14:20;;;;;;;7.38;3.83;;;;;;;;;;5016362;28;20021;-72
2022/05/08 05:16:47;;;;;;;10.93;4.10;;;;;;;;;;5030648;28;20022;-71
2022/05/08 05:19:13;;;;;;;9.70;4.15;;;;;;;;;;5029499;28;20029;-71
2022/05/08 05:21:39;;;;;;;5.88;3.50;;;;;;;;;;5020156;28;20540;-72
2022/05/08 05:24:05;;;;;;;7.82;4.07;;;;;;;;;;5015232;28;20087;-71
2022/05/08 05:26:32;;;;;;;7.47;4.10;;;;;;;;;;5018926;28;20037;-71
2022/05/08 05:28:58;;;;;;;8.02;4.13;;;;;;;;;;5015335;28;20399;-72
2022/05/08 05:31:24;;;;;;;6.28;4.10;;;;;;;;;;5017214;28;20034;-72
2022/05/08 05:33:50;;;;;;;8.98;3.85;;;;;;;;;;5019065;28;20029;-72
2022/05/08 05:36:16;;;;;;;8.88;3.88;;;;;;;;;;5018983;28;20022;-72
2022/05/08 05:38:43;;;;;;;6.53;3.90;;;;;;;;;;5017530;28;20029;-72
2022/05/08 05:41:09;;;;;;;8.65;4.32;;;;;;;;;;5017051;28;20038;-72
2022/05/08 05:43:35;;;;;;;7.90;4.32;;;;;;;;;;5016504;28;20485;-72
2022/05/08 05:48:46;;;;;;;7.88;4.03;;;;;;;;;;5018749;28;20048;-71
2022/05/08 05:51:12;;;;;;;8.60;4.80;;;;;;;;;;5017315;28;20076;-71
2022/05/08 05:53:38;;;;;;;6.97;4.25;;;;;;;;;;5015883;28;20175;-72
2022/05/08 05:56:04;;;;;;;7.82;4.28;;;;;;;;;;5015321;28;20025;-72
2022/05/08 05:58:31;;;;;;;8.77;4.30;;;;;;;;;;5029403;28;20069;-72
2022/05/08 06:00:57;;;;;;;12.48;3.90;;;;;;;;;;5018243;28;20034;-72
2022/05/08 06:03:23;;;;;;;7.55;4.07;;;;;;;;;;5018319;28;20033;-72
2022/05/08 06:05:49;;;;;;;7.55;3.92;;;;;;;;;;5018014;28;20476;-71
2022/05/08 06:08:15;;;;;;;8.75;3.70;;;;;;;;;;5016752;28;20044;-72
2022/05/08 06:10:41;;;;;;;8.57;3.80;;;;;;;;;;5022098;28;20032;-72
2022/05/08 06:13:07;;;;;;;7.13;3.80;;;;;;;;;;5017112;28;20404;-72
2022/05/08 06:15:33;;;;;;;8.27;3.88;;;;;;;;;;5026303;28;20053;-72
2022/05/08 06:18:00;;;;;;;7.90;4.00;;;;;;;;;;5025128;28;20022;-72
2022/05/08 06:20:26;;;;;;;9.20;4.10;;;;;;;;;;5028710;28;20041;-72
2022/05/08 06:22:54;;;;;;;8.45;4.38;;;;;;;;;;5013698;28;20017;-72
2022/05/08 06:25:20;;;;;;;6.28;3.60;;;;;;;;;;5028805;28;20029;-72
2022/05/08 06:27:46;;;;;;;6.65;4.20;;;;;;;;;;5022355;28;20116;-71
2022/05/08 06:30:13;;;;;;;6.43;3.80;;;;;;;;;;5028272;28;20045;-71
2022/05/08 06:32:39;;;;;;;8.07;3.75;;;;;;;;;;5026822;28;20021;-72
2022/05/08 06:35:05;;;;;;;7.20;3.80;;;;;;;;;;5014813;28;20042;-72
2022/05/08 06:37:31;;;;;;;9.75;4.18;;;;;;;;;;5028488;28;20036;-72
2022/05/08 06:39:57;;;;;;;8.35;4.30;;;;;;;;;;5017521;28;20058;-71
2022/05/08 06:42:23;;;;;;;8.02;4.45;;;;;;;;;;5017542;28;20044;-71
2022/05/08 06:44:49;;;;;;;9.90;3.90;;;;;;;;;;5018466;28;20117;-71
2022/05/08 06:47:15;;;;;;;7.05;4.10;;;;;;;;;;5028843;28;20033;-71
2022/05/08 06:49:42;;;;;;;7.10;4.18;;;;;;;;;;5014165;28;20463;-72
2022/05/08 06:52:08;;;;;;;9.50;4.47;;;;;;;;;;5016999;28;20034;-71
2022/05/08 06:54:34;;;;;;;6.07;4.20;;;;;;;;;;5017128;28;20080;-71
2022/05/08 06:57:00;;;;;;;9.45;4.30;;;;;;;;;;5017333;28;20135;-71
2022/05/08 07:02:11;;;;;;;7.57;4.05;;;;;;;;;;5015841;28;20083;-72
2022/05/08 07:04:38;;;;;;;8.25;4.25;;;;;;;;;;5027472;28;20028;-72
2022/05/08 07:07:04;;;;;;;8.82;4.15;;;;;;;;;;5018366;28;20041;-72
2022/05/08 07:09:32;;;;;;;8.13;4.38;;;;;;;;;;5019548;28;20477;-72
2022/05/08 07:11:59;;;;;;;6.72;4.07;;;;;;;;;;5019518;28;20041;-72
2022/05/08 07:14:25;;;;;;;6.68;4.22;;;;;;;;;;5020520;28;20025;-71
2022/05/08 07:16:51;;;;;;;7.35;4.20;;;;;;;;;;5027534;28;20435;-71
2022/05/08 07:19:17;;;;;;;9.30;4.50;;;;;;;;;;5017065;28;20021;-71
2022/05/08 07:21:44;;;;;;;7.05;4.40;;;;;;;;;;5020608;28;20079;-70
2022/05/08 07:24:10;;;;;;;6.28;3.92;;;;;;;;;;5019682;28;20182;-71
2022/05/08 07:26:36;;;;;;;6.25;4.20;;;;;;;;;;5029049;28;20071;-71
2022/05/08 07:29:04;;;;;;;7.03;4.22;;;;;;;;;;5017518;28;20021;-71
2022/05/08 07:31:31;;;;;;;7.47;5.00;;;;;;;;;;5014493;28;20034;-71
2022/05/08 07:36:42;;;;;;;8.10;5.00;;;;;;;;;;5020870;28;20094;-70
2022/05/08 07:39:08;;;;;;;8.23;5.00;;;;;;;;;;5021759;28;20076;-71
2022/05/08 07:41:34;;;;;;;8.00;4.53;;;;;;;;;;5016797;28;20480;-70
2022/05/08 07:44:00;;;;;;;8.18;5.13;;;;;;;;;;5012989;28;20484;-69
2022/05/08 07:46:27;;;;;;;8.77;4.85;;;;;;;;;;5014838;28;20503;-70
2022/05/08 07:48:53;;;;;;;8.43;4.85;;;;;;;;;;5025139;28;20030;-70
2022/05/08 07:51:19;;;;;;;8.68;4.85;;;;;;;;;;5016541;28;20034;-71
2022/05/08 07:53:45;;;;;;;8.73;5.10;;;;;;;;;;5016715;28;20026;-71
2022/05/08 07:56:11;;;;;;;8.32;4.85;;;;;;;;;;5027129;28;20117;-71
2022/05/08 07:58:38;;;;;;;9.07;5.20;;;;;;;;;;5027965;28;20076;-70
2022/05/08 08:01:04;;;;;;;11.85;5.68;;;;;;;;;;5016193;28;20037;-70
2022/05/08 08:03:31;;;;;;;8.20;5.53;;;;;;;;;;5016261;28;20040;-70
2022/05/08 08:05:58;;;;;;;8.68;5.00;;;;;;;;;;5021409;28;20513;-71
2022/05/08 08:08:25;;;;;;;9.27;4.80;;;;;;;;;;5020607;28;20058;-71
2022/05/08 08:10:58;;;;;;;10.07;5.07;;;;;;;;;;5008564;28;20014;-71
2022/05/08 08:13:26;;;;;;;7.55;5.40;;;;;;;;;;5022641;28;20036;-70
2022/05/08 08:15:53;;;;;;;7.93;5.03;;;;;;;;;;5012283;28;20053;-71
2022/05/08 08:18:19;;;;;;;7.18;5.22;;;;;;;;;;5016405;28;20029;-71
2022/05/08 08:20:45;;;;;;;9.20;5.55;;;;;;;;;;5025359;28;20464;-71
2022/05/08 08:23:11;;;;;;;9.75;5.55;;;;;;;;;;5025621;28;20038;-71
2022/05/08 08:25:38;;;;;;;8.60;5.13;;;;;;;;;;5014038;28;20052;-71
2022/05/08 08:28:04;;;;;;;11.85;5.00;;;;;;;;;;5015211;28;20044;-71
2022/05/08 08:30:31;;;;;;;11.95;5.72;;;;;;;;;;5012661;28;20036;-71
2022/05/08 08:32:57;;;;;;;9.82;5.00;;;;;;;;;;5017470;28;20021;-71
2022/05/08 08:35:23;;;;;;;8.20;5.30;;;;;;;;;;5027443;28;20060;-71
2022/05/08 08:37:50;;;;;;;9.75;5.43;;;;;;;;;;5011478;28;20021;-71
2022/05/08 08:40:16;;;;;;;9.43;5.38;;;;;;;;;;5012475;28;20231;-70
2022/05/08 08:42:43;;;;;;;7.05;4.90;;;;;;;;;;5018822;28;20021;-70
2022/05/08 08:47:56;;;;;;;8.13;5.10;;;;;;;;;;5012672;28;20415;-70
2022/05/08 08:50:26;;;;;;;7.93;5.05;;;;;;;;;;5021190;28;20026;-70
2022/05/08 08:52:54;;;;;;;6.93;5.05;;;;;;;;;;5007534;28;20034;-71
2022/05/08 08:55:22;;;;;;;9.43;5.22;;;;;;;;;;5025143;28;20112;-71
2022/05/08 08:57:49;;;;;;;7.20;4.63;;;;;;;;;;5015274;28;20018;-70
2022/05/08 09:00:16;;;;;;;10.45;5.63;;;;;;;;;;5020018;28;20037;-71
2022/05/08 09:02:42;;;;;;;10.88;5.40;;;;;;;;;;5023789;28;20067;-71
2022/05/08 09:05:09;;;;;;;10.20;5.47;;;;;;;;;;5026527;28;20566;-70
2022/05/08 09:07:37;;;;;;;9.63;5.38;;;;;;;;;;5025829;28;20061;-70
2022/05/08 09:10:22;;;;;;;11.90;5.20;;;;;;;;;;5022486;28;20025;-71
2022/05/08 09:12:54;;;;;;;8.90;6.00;;;;;;;;;;5015772;28;20091;-70
2022/05/08 09:15:20;;;;;;;7.57;5.13;;;;;;;;;;5017740;28;20094;-71
2022/05/08 09:17:47;;;;;;;8.63;5.13;;;;;;;;;;5015254;28;20042;-71
2022/05/08 09:20:33;;;;;;;9.30;5.50;;;;;;;;;;5013503;28;20033;-70
2022/05/08 09:22:59;;;;;;;8.68;5.05;;;;;;;;;;5011148;28;20030;-71
2022/05/08 09:25:25;;;;;;;8.55;5.35;;;;;;;;;;5020280;28;20037;-70
2022/05/08 09:28:00;;;;;;;9.82;5.35;;;;;;;;;;5014943;28;20034;-70
2022/05/08 09:30:27;;;;;;;8.98;5.50;;;;;;;;;;5013846;28;20485;-70
2022/05/08 09:32:53;;;;;;;7.05;5.60;;;;;;;;;;5014080;28;20030;-70
2022/05/08 09:35:19;;;;;;;8.18;5.53;;;;;;;;;;5012094;28;20080;-71
2022/05/08 09:37:52;;;;;;;9.30;5.30;;;;;;;;;;5011400;28;20033;-71
2022/05/08 09:40:19;;;;;;;7.82;4.70;;;;;;;;;;5012670;28;20160;-74
2022/05/08 09:42:46;;;;;;;9.93;5.45;;;;;;;;;;5018765;28;20033;-72
2022/05/08 09:45:13;;;;;;;8.07;5.05;;;;;;;;;;5019507;28;20029;-71
2022/05/08 09:47:43;;;;;;;7.55;4.95;;;;;;;;;;5018396;28;20044;-71
2022/05/08 09:50:10;;;;;;;8.25;4.88;;;;;;;;;;5008798;28;20030;-73
2022/05/08 09:52:40;;;;;;;8.82;5.35;;;;;;;;;;5007734;28;20034;-71
2022/05/08 09:55:10;;;;;;;9.02;5.00;;;;;;;;;;5014203;28;20049;-72
2022/05/08 09:57:36;;;;;;;7.45;4.90;;;;;;;;;;5016166;28;20041;-74
2022/05/08 10:00:06;;;;;;;8.32;4.60;;;;;;;;;;5016441;28;20056;-72
2022/05/08 10:02:32;;;;;;;9.48;5.40;;;;;;;;;;5022999;28;20556;-71
2022/05/08 10:04:58;;;;;;;8.45;4.85;;;;;;;;;;5026858;28;20030;-71
2022/05/08 10:07:25;;;;;;;8.02;5.13;;;;;;;;;;5025575;28;20546;-69
2022/05/08 10:15:31;;;;;;;7.20;4.80;;;;;;;;;;5017620;28;20187;-68
2022/05/08 10:18:16;;;;;;;8.98;4.88;;;;;;;;;;5014750;28;20040;-68
2022/05/08 10:21:01;;;;;;;7.65;5.00;;;;;;;;;;5023524;28;20025;-68
2022/05/08 10:23:41;;;;;;;7.55;5.18;;;;;;;;;;5009957;28;20069;-69
2022/05/08 10:26:16;;;;;;;8.75;5.07;;;;;;;;;;5024062;28;20033;-68
2022/05/08 10:29:01;;;;;;;6.25;4.50;;;;;;;;;;5014170;28;20045;-68
2022/05/08 10:31:46;;;;;;;7.03;4.70;;;;;;;;;;5024748;28;20028;-68
2022/05/08 10:34:13;;;;;;;8.05;4.85;;;;;;;;;;5014129;28;20033;-68
2022/05/08 10:36:42;;;;;;;6.38;4.90;;;;;;;;;;5013934;28;20032;-68
2022/05/08 10:39:27;;;;;;;7.75;5.10;;;;;;;;;;5016927;28;20033;-67
2022/05/08 10:41:53;;;;;;;7.28;4.70;;;;;;;;;;5018995;28;20025;-68
2022/05/08 10:44:35;;;;;;;8.32;5.00;;;;;;;;;;5015492;28;20108;-67
2022/05/08 10:47:20;;;;;;;6.18;4.70;;;;;;;;;;5014208;28;20065;-68
2022/05/08 10:49:46;;;;;;;8.88;4.90;;;;;;;;;;5013608;28;20029;-68
2022/05/08 10:52:12;;;;;;;7.25;4.70;;;;;;;;;;5016506;28;20116;-70
2022/05/08 10:54:55;;;;;;;7.15;4.60;;;;;;;;;;5017591;28;20049;-70
2022/05/08 10:57:28;;;;;;;7.22;4.00;;;;;;;;;;5016564;28;20022;-69
2022/05/08 10:59:54;;;;;;;;;;;;;;;;;;5017613;28;20025;-69
2022/05/08 11:02:38;;;;;;;7.30;4.95;;;;;;;;;;5015202;28;19909;-69
2022/05/08 11:05:05;;;;;;;6.93;4.65;;;;;;;;;;5014704;28;20053;-69
2022/05/08 11:07:31;;;;;;;9.73;5.68;;;;;;;;;;5015076;28;20034;-69
2022/05/08 11:09:58;;;;;;;8.48;4.30;;;;;;;;;;5026507;28;20030;-69
2022/05/08 11:12:24;;;;;;;8.23;4.60;;;;;;;;;;5020227;28;20448;-69
2022/05/08 11:14:51;;;;;;;8.63;5.15;;;;;;;;;;5016925;28;20046;-69
2022/05/08 11:17:21;;;;;;;7.97;4.75;;;;;;;;;;5015762;28;20104;-70
2022/05/08 11:19:51;;;;;;;8.82;5.05;;;;;;;;;;5013497;28;20079;-70
2022/05/08 11:22:17;;;;;;;7.70;4.53;;;;;;;;;;5017676;28;20105;-69
2022/05/08 11:24:49;;;;;;;7.00;4.47;;;;;;;;;;5017324;28;20408;-70
2022/05/08 11:27:15;;;;;;;8.50;5.00;;;;;;;;;;5019618;28;20037;-69
2022/05/08 11:29:50;;;;;;;6.88;4.25;;;;;;;;;;5025893;28;20022;-69
2022/05/08 11:38:03;;;;;;;5.40;4.28;;;;;;;;;;5012966;28;20040;-70
2022/05/08 11:40:30;;;;;;;7.28;4.47;;;;;;;;;;5012524;28;20122;-70
2022/05/08 11:42:56;;;;;;;8.05;4.30;;;;;;;;;;5023190;28;20038;-70
2022/05/08 11:45:22;;;;;;;6.63;4.20;;;;;;;;;;5017462;28;20056;-70
2022/05/08 11:47:53;;;;;;;8.27;5.10;;;;;;;;;;5013077;28;20034;-70
2022/05/08 11:50:20;;;;;;;6.05;4.75;;;;;;;;;;5013372;28;20457;-70
2022/05/08 11:52:46;;;;;;;7.82;4.95;;;;;;;;;;5009668;28;20104;-70
2022/05/08 11:55:13;;;;;;;7.78;4.93;;;;;;;;;;5023865;28;20524;-70
2022/05/08 11:57:43;;;;;;;7.38;5.25;;;;;;;;;;5018968;28;20602;-70
2022/05/08 12:00:12;;;;;;;8.65;5.13;;;;;;;;;;5016023;28;20220;-70
2022/05/08 12:02:43;;;;;;;6.70;4.50;;;;;;;;;;5021635;28;20500;-70
2022/05/08 12:05:27;;;;;;;7.18;4.57;;;;;;;;;;5022008;28;20029;-69
2022/05/08 12:07:53;;;;;;;10.15;4.57;;;;;;;;;;5024024;28;20426;-70
2022/05/08 12:10:19;;;;;;;6.40;4.65;;;;;;;;;;5011863;28;20022;-70
2022/05/08 12:12:46;;;;;;;8.73;4.50;;;;;;;;;;5020571;28;20040;-71
2022/05/08 12:15:12;;;;;;;7.53;4.53;;;;;;;;;;5020707;28;20053;-71
2022/05/08 12:17:45;;;;;;;5.47;4.28;;;;;;;;;;5020757;28;20025;-71
2022/05/08 12:20:28;;;;;;;7.00;4.50;;;;;;;;;;5010689;28;20018;-70
2022/05/08 12:23:12;;;;;;;6.80;4.88;;;;;;;;;;5009557;28;20408;-70
2022/05/08 12:25:41;;;;;;;7.35;4.53;;;;;;;;;;5019176;28;20772;-70
2022/05/08 12:28:07;;;;;;;6.93;4.63;;;;;;;;;;5012625;28;20133;-70
2022/05/08 12:30:34;;;;;;;9.35;6.25;;;;;;;;;;5012752;28;20121;-70
2022/05/08 12:33:00;;;;;;;10.00;6.40;;;;;;;;;;5013379;28;20025;-70
2022/05/08 12:35:26;;;;;;;11.48;5.65;;;;;;;;;;5013726;28;20026;-70
2022/05/08 12:37:53;;;;;;;7.20;4.85;;;;;;;;;;5029164;28;20041;-70
2022/05/08 12:40:19;;;;;;;8.35;5.60;;;;;;;;;;5027584;28;20030;-70
2022/05/08 12:42:45;;;;;;;9.27;5.15;;;;;;;;;;5024953;28;20519;-70
2022/05/08 12:45:12;;;;;;;7.05;5.18;;;;;;;;;;5025147;28;20036;-70
2022/05/08 12:47:38;;;;;;;9.43;5.00;;;;;;;;;;5024628;28;20573;-69
2022/05/08 12:50:05;;;;;;;6.20;4.30;;;;;;;;;;5026258;28;20485;-69
2022/05/08 12:52:31;;;;;;;7.32;4.50;;;;;;;;;;5016424;28;20018;-69
2022/05/08 12:54:58;;;;;;;7.25;4.65;;;;;;;;;;5025966;28;20034;-70
2022/05/08 13:00:09;;;;;;;6.80;4.53;;;;;;;;;;5021266;28;20133;-70
2022/05/08 13:02:35;;;;;;;8.90;4.53;;;;;;;;;;5019236;28;20519;-70
2022/05/08 13:05:01;;;;;;;6.10;4.25;;;;;;;;;;5014654;28;20033;-69
2022/05/08 13:07:28;;;;;;;5.47;4.43;;;;;;;;;;5016904;28;20488;-70
2022/05/08 13:09:54;;;;;;;7.72;4.50;;;;;;;;;;5020932;28;20038;-69
2022/05/08 13:12:20;;;;;;;6.32;4.55;;;;;;;;;;5021707;28;20056;-70
2022/05/08 13:14:46;;;;;;;8.63;4.30;;;;;;;;;;5022874;28;20048;-70
2022/05/08 13:17:12;;;;;;;6.35;4.93;;;;;;;;;;5020342;28;20037;-70
2022/05/08 13:19:38;;;;;;;6.38;4.60;;;;;;;;;;5022963;28;20025;-70
2022/05/08 13:22:06;;;;;;;7.90;4.75;;;;;;;;;;5031076;28;20017;-69
2022/05/08 13:24:33;;;;;;;7.00;4.32;;;;;;;;;;5029076;28;20400;-71
2022/05/08 13:27:01;;;;;;;7.90;4.75;;;;;;;;;;5027290;28;20030;-71
2022/05/08 13:29:28;;;;;;;6.60;4.22;;;;;;;;;;5027929;28;20033;-71
2022/05/08 13:31:57;;;;;;;6.30;4.18;;;;;;;;;;5014972;28;20036;-71
2022/05/08 13:34:28;;;;;;;6.38;4.13;;;;;;;;;;5027444;28;20037;-70
2022/05/08 13:36:55;;;;;;;10.27;4.30;;;;;;;;;;5027203;28;20124;-70
2022/05/08 13:39:23;;;;;;;7.57;3.70;;;;;;;;;;5027672;28;20029;-70
2022/05/08 13:41:52;;;;;;;9.35;3.35;;;;;;;;;;5023198;28;20036;-70
2022/05/08 13:44:18;;;;;;;8.20;3.92;;;;;;;;;;5027622;28;20116;-70
2022/05/08 13:46:46;;;;;;;7.55;3.53;;;;;;;;;;5030391;28;20048;-70
2022/05/08 13:49:12;;;;;;;5.68;3.45;;;;;;;;;;5022460;28;20048;-70
2022/05/08 13:51:38;;;;;;;7.72;3.65;;;;;;;;;;5014907;28;20164;-70
2022/05/08 13:54:05;;;;;;;13.57;3.22;;;;;;;;;;5014575;28;20033;-70
2022/05/08 13:56:34;;;;;;;6.28;3.30;;;;;;;;;;5009461;28;20021;-70
2022/05/08 13:59:00;;;;;;;7.47;3.92;;;23.40;82.60;;;;;;5009902;28;20486;-70
2022/05/08 14:01:28;;;;;;;6.43;3.47;;;23.50;81.30;;;;;;5014419;28;20032;-70
2022/05/08 14:03:55;;;;;;;8.57;3.35;;;23.50;82.50;;;;;;5010683;28;20500;-70
2022/05/08 14:06:21;;;;;;;6.35;2.95;;;23.90;82.30;;;;;;5010559;28;20103;-71
2022/05/08 14:08:46;;;;;;;5.65;3.60;;;23.80;81.80;;;;;;5011190;28;20120;-71
2022/05/08 14:11:13;;;;;;;9.68;3.65;;;23.70;81.40;;;;;;5007493;28;20018;-72
2022/05/08 14:13:40;;;;;;;5.32;3.58;;;23.80;82.20;;;;;;5020327;28;20463;-71
2022/05/08 14:16:06;;;;;;;7.45;3.60;;;23.50;81.10;;;;;;5017804;28;20057;-71
2022/05/08 14:18:31;;;;;;;10.65;3.47;;;23.80;82.10;;;;;;5018160;28;20037;-71
2022/05/08 14:20:58;;;;;;;9.25;3.58;;;23.60;81.00;;;;;;5017955;28;20111;-71
2022/05/08 14:23:23;;;;;;;5.85;3.10;;;23.50;82.00;;;;;;5009859;28;20033;-71
2022/05/08 14:25:49;;;;;;;5.53;2.95;;;23.40;81.40;;;;;;5006564;28;20034;-71
2022/05/08 14:28:15;;;;;;;7.05;3.80;;;23.40;81.50;;;;;;5009619;28;20080;-71
2022/05/08 14:36:01;;;;;;;6.43;3.85;;;23.20;83.40;;;;;;5013551;28;20037;-71
2022/05/08 14:36:12;;;;;;;9.38;4.13;;;;;;;;;;5013893;28;20048;-71
2022/05/08 14:38:38;;;;;;;7.93;4.05;;;;;;;;;;5019399;28;20115;-70
2022/05/08 14:41:05;;;;;;;7.15;4.03;;;;;;;;;;5007497;28;20282;-71
2022/05/08 14:43:31;;;;;;;6.95;4.03;;;;;;;;;;5020930;28;20029;-71
2022/05/08 14:45:58;;;;;;;8.68;4.70;;;;;;;;;;5019931;28;20128;-71
2022/05/08 14:48:26;;;;;;;10.55;4.43;;;;;;;;;;5009603;28;20053;-71
2022/05/08 14:50:52;;;;;;;7.40;4.40;;;;;;;;;;5015853;28;20105;-71
2022/05/08 14:53:18;;;;;;;7.38;4.20;;;;;;;;;;5011905;28;20029;-70
2022/05/08 14:55:46;;;;;;;6.88;4.47;;;;;;;;;;5009730;28;25316;-71
2022/05/08 14:58:14;;;;;;;8.32;4.22;;;;;;;;;;5013133;28;20022;-71
2022/05/08 15:00:40;;;;;;;8.52;4.20;;;;;;;;;;5011015;28;20033;-72
2022/05/08 15:03:07;;;;;;;5.75;3.97;;;;;;;;;;5009648;28;20021;-71
2022/05/08 15:05:33;;;;;;;8.90;4.78;;;;;;;;;;5011844;28;20499;-71
2022/05/08 15:07:59;;;;;;;6.68;4.18;;;;;;;;;;5013456;28;25334;-70
2022/05/08 15:10:25;;;;;;;8.45;4.40;;;;;;;;;;5018913;28;20028;-70
2022/05/08 15:12:52;;;;;;;9.50;4.63;;;;;;;;;;5016068;28;20034;-67
2022/05/08 15:15:18;;;;;;;8.95;5.15;;;;;;;;;;5014566;28;20125;-67
2022/05/08 15:20:53;;;;;;;7.53;4.32;;;;;;;;;;4968452;28;20125;-69